Terminal Aerodrome Forecast
Issued by NWS Hastings, NE

Home | Current Version | Previous Version | Text Only | Print | Product List | Glossary On
Versions: 1 2 3 4 5 6 7 8 9 10 11 12 13 14 15
000
FTUS43 KGID 280520
TAFGRI
TAF
KGRI 280520Z 2806/2906 16005KT P6SM SCT250
     FM281500 19009KT P6SM FEW250
     FM281900 17015KT P6SM FEW050 SCT250
     FM290100 16009KT P6SM SCT250
     FM290500 17007KT P6SM BKN150=

USA.gov is the U.S. government's official web portal to all federal, state and local government web resources and services.